Time;durP1;ratioP1;P1;durP2;ratioP2;P2;SDS_P1;SDS_P2;PMS_P1;PMS_P2;Temp;Humidity;BMP_temperature;BMP_pressure;BME280_temperature;BME280_humidity;BME280_pressure;Samples;Min_cycle;Max_cycle;Signal;HPM_P1;HPM_P2
2022/07/17 00:04:09;;;;;;;5.13;3.17;;;;;;;;;;10446996;28;20396;-48
2022/07/17 00:09:09;;;;;;;4.93;3.30;;;;;;;;;;10446989;28;20045;-49
2022/07/17 00:14:10;;;;;;;5.15;3.35;;;;;;;;;;10447227;28;20389;-48
2022/07/17 00:19:11;;;;;;;3.88;3.20;;;;;;;;;;10446388;28;20135;-48
2022/07/17 00:24:12;;;;;;;4.70;3.90;;;;;;;;;;10442788;28;20104;-48
2022/07/17 00:29:13;;;;;;;3.80;3.03;;;;;;;;;;10448462;28;20511;-48
2022/07/17 00:34:14;;;;;;;5.70;3.45;;;;;;;;;;10455035;28;20029;-48
2022/07/17 00:39:15;;;;;;;4.18;3.38;;;;;;;;;;10455077;28;20037;-48
2022/07/17 00:44:16;;;;;;;5.32;3.20;;;;;;;;;;10455249;28;20076;-47
2022/07/17 00:49:16;;;;;;;6.75;3.47;;;;;;;;;;10455204;28;20033;-48
2022/07/17 00:54:17;;;;;;;3.97;3.03;;;;;;;;;;10454918;28;20102;-49
2022/07/17 00:59:19;;;;;;;4.32;3.50;;;;;;;;;;10454198;28;20021;-48
2022/07/17 01:04:19;;;;;;;4.88;3.63;;;;;;;;;;10440302;28;20033;-53
2022/07/17 01:09:20;;;;;;;3.97;3.10;;;;;;;;;;10453747;28;20510;-50
2022/07/17 01:14:23;;;;;;;4.47;2.83;;;;;;;;;;10454232;28;20393;-48
2022/07/17 01:19:23;;;;;;;5.03;3.17;;;;;;;;;;10453292;28;20040;-48
2022/07/17 01:24:24;;;;;;;4.20;3.35;;;;;;;;;;10453052;28;20059;-48
2022/07/17 01:29:24;;;;;;;4.65;3.38;;;;;;;;;;10453654;28;20032;-49
2022/07/17 01:34:25;;;;;;;5.40;3.10;;;;;;;;;;10452987;28;20018;-51
2022/07/17 01:44:45;;;;;;;5.43;3.10;;;;;;;;;;10452111;28;20032;-55
2022/07/17 01:49:55;;;;;;;3.63;3.08;;;;;;;;;;10452148;28;20045;-48
2022/07/17 01:54:56;;;;;;;4.38;3.05;;;;;;;;;;10452427;28;20552;-49
2022/07/17 01:59:56;;;;;;;3.90;2.97;;;;;;;;;;10452883;28;20021;-50
2022/07/17 02:04:57;;;;;;;3.53;3.00;;;;;;;;;;10452210;28;20025;-50
2022/07/17 02:09:58;;;;;;;3.47;2.95;;;;;;;;;;10451524;28;20056;-55
2022/07/17 02:14:58;;;;;;;2.92;2.72;;;;;;;;;;10452402;28;20028;-48
2022/07/17 02:19:59;;;;;;;3.42;2.83;;;;;;;;;;10449864;28;20036;-48
2022/07/17 02:24:59;;;;;;;4.20;3.08;;;;;;;;;;10451342;28;20029;-49
2022/07/17 02:30:13;;;;;;;2.92;2.72;;;;;;;;;;10450402;28;20044;-48
2022/07/17 02:35:14;;;;;;;3.38;2.88;;;;;;;;;;10451599;28;20025;-49
2022/07/17 02:40:15;;;;;;;3.22;2.92;;;;;;;;;;10450497;28;20029;-51
2022/07/17 02:45:15;;;;;;;3.20;2.63;;;;;;;;;;10433394;28;20028;-48
2022/07/17 02:50:16;;;;;;;3.72;2.97;;;;;;;;;;10450088;28;20025;-48
2022/07/17 02:55:17;;;;;;;4.90;2.78;;;;;;;;;;10449312;28;20524;-48
2022/07/17 03:00:20;;;;;;;3.15;2.70;;;;;;;;;;10449329;28;20021;-48
2022/07/17 03:05:21;;;;;;;3.75;2.78;;;;;;;;;;10448522;28;20527;-48
2022/07/17 03:10:22;;;;;;;3.90;2.72;;;;;;;;;;10449425;28;20049;-49
2022/07/17 03:15:23;;;;;;;3.20;2.50;;;;;;;;;;10449703;28;20088;-49
2022/07/17 03:20:24;;;;;;;3.28;2.88;;;;;;;;;;10447704;28;20032;-57
2022/07/17 03:25:25;;;;;;;3.10;2.80;;;;;;;;;;10424379;28;20104;-57
2022/07/17 03:30:25;;;;;;;4.13;2.72;;;;;;;;;;10447550;28;20461;-56
2022/07/17 03:35:26;;;;;;;3.85;2.70;;;;;;;;;;10448848;28;20534;-57
2022/07/17 03:40:27;;;;;;;7.95;2.83;;;;;;;;;;10448595;28;20028;-57
2022/07/17 03:45:27;;;;;;;3.38;2.40;;;;;;;;;;10448016;28;20102;-56
2022/07/17 03:50:28;;;;;;;2.75;2.47;;;;;;;;;;10448831;28;20044;-55
2022/07/17 03:55:28;;;;;;;5.68;2.42;;;;;;;;;;10448184;28;20252;-57
2022/07/17 04:00:29;;;;;;;3.30;2.40;;;;;;;;;;10447848;28;20160;-57
2022/07/17 04:05:30;;;;;;;4.07;2.45;;;;;;;;;;10447785;28;20524;-57
2022/07/17 04:10:30;;;;;;;4.55;2.63;;;;;;;;;;10447208;28;21176;-55
2022/07/17 04:15:49;;;;;;;3.75;2.28;;;;;;;;;;10448046;28;20400;-56
2022/07/17 04:20:51;;;;;;;3.03;2.42;;;;;;;;;;10446926;28;20021;-48
2022/07/17 04:25:52;;;;;;;3.38;2.55;;;;;;;;;;10447479;28;20028;-48
2022/07/17 04:30:53;;;;;;;3.08;2.55;;;;;;;;;;10447287;28;20388;-48
2022/07/17 04:35:53;;;;;;;2.78;2.38;;;;;;;;;;10447253;28;20032;-51
2022/07/17 04:40:54;;;;;;;3.85;2.30;;;;;;;;;;10446865;28;20025;-55
2022/07/17 04:45:55;;;;;;;3.30;2.40;;;;;;;;;;10441487;28;20397;-54
2022/07/17 04:50:55;;;;;;;3.40;2.55;;;;;;;;;;10446696;28;20036;-54
2022/07/17 04:55:56;;;;;;;4.60;2.63;;;;;;;;;;10447986;28;20079;-58
2022/07/17 05:00:57;;;;;;;5.57;2.50;;;;;;;;;;10446587;28;20013;-56
2022/07/17 05:05:57;;;;;;;3.15;2.45;;;;;;;;;;10446984;28;20541;-58
2022/07/17 05:10:58;;;;;;;14.95;3.35;;;;;;;;;;10446148;28;20041;-60
2022/07/17 05:15:59;;;;;;;4.63;2.50;;;;;;;;;;10447882;28;20025;-58
2022/07/17 05:21:01;;;;;;;7.15;2.30;;;;;;;;;;10453185;28;20032;-60
2022/07/17 05:26:02;;;;;;;4.90;2.40;;;;;;;;;;10456468;22;20052;-51
2022/07/17 05:31:03;;;;;;;8.20;2.88;;;;;;;;;;10406969;28;20037;-52
2022/07/17 05:36:04;;;;;;;4.07;2.35;;;;;;;;;;10419442;28;20025;-48
2022/07/17 05:41:05;;;;;;;3.13;2.30;;;;;;;;;;10414364;28;20029;-57
2022/07/17 05:46:05;;;;;;;5.90;2.70;;;;;;;;;;10413631;28;20473;-48
2022/07/17 05:51:06;;;;;;;7.05;2.40;;;;;;;;;;10420869;28;20022;-47
2022/07/17 05:56:07;;;;;;;5.30;2.50;;;;;;;;;;10423072;28;20029;-48
2022/07/17 06:01:07;;;;;;;9.18;2.60;;;;;;;;;;10430072;28;20212;-48
2022/07/17 06:06:08;;;;;;;2.47;2.20;;;;;;;;;;10415874;28;20030;-47
2022/07/17 06:11:09;;;;;;;4.10;2.30;;;;;;;;;;10415978;28;20022;-49
2022/07/17 06:16:09;;;;;;;4.32;2.22;;;;;;;;;;10420425;28;20033;-50
2022/07/17 06:26:31;;;;;;;4.55;2.58;;;;;;;;;;10335181;28;20128;-48
2022/07/17 06:31:31;;;;;;;3.20;2.20;;;;;;;;;;10328845;28;20069;-48
2022/07/17 06:36:32;;;;;;;5.05;2.30;;;;;;;;;;10341990;28;20041;-48
2022/07/17 06:41:33;;;;;;;5.68;2.40;;;;;;;;;;10343904;28;20606;-47
2022/07/17 06:46:33;;;;;;;3.22;1.70;;;;;;;;;;10335843;28;20046;-48
2022/07/17 06:51:34;;;;;;;4.78;2.20;;;;;;;;;;10337626;28;20038;-47
2022/07/17 06:56:34;;;;;;;3.88;2.10;;;;;;;;;;10344484;28;20038;-47
2022/07/17 07:01:36;;;;;;;4.18;2.15;;;;;;;;;;10367473;28;20444;-49
2022/07/17 07:06:37;;;;;;;2.30;2.05;;;;;;;;;;10412206;28;20041;-48
2022/07/17 07:11:38;;;;;;;2.47;2.03;;;;;;;;;;10408524;28;20063;-48
2022/07/17 07:16:39;;;;;;;6.38;2.13;;;;;;;;;;10411585;28;20488;-47
2022/07/17 07:21:40;;;;;;;4.40;2.50;;;;;;;;;;10417925;28;20029;-47
2022/07/17 07:26:40;;;;;;;2.92;1.98;;;;;;;;;;10414491;28;20045;-48
2022/07/17 07:31:41;;;;;;;5.30;2.38;;;;;;;;;;10408369;28;20029;-50
2022/07/17 07:36:42;;;;;;;2.97;2.28;;;;;;;;;;10428812;28;20041;-48
2022/07/17 07:41:43;;;;;;;7.40;2.28;;;;;;;;;;10444277;28;20528;-48
2022/07/17 07:46:44;;;;;;;3.22;2.08;;;;;;;;;;10418693;28;20032;-48
2022/07/17 07:51:44;;;;;;;3.25;2.00;;;;;;;;;;10436700;28;20032;-48
2022/07/17 07:56:45;;;;;;;2.03;1.83;;;;;;;;;;10419757;28;20038;-47
2022/07/17 08:01:46;;;;;;;3.13;2.20;;;;;;;;;;10421295;28;20086;-48
2022/07/17 08:06:46;;;;;;;2.47;1.90;;;;;;;;;;10432989;28;20029;-48
2022/07/17 08:11:47;;;;;;;2.78;1.90;;;;;;;;;;10414463;28;20064;-47
2022/07/17 08:16:47;;;;;;;5.03;2.00;;;;;;;;;;10421540;28;20032;-47
2022/07/17 08:21:48;;;;;;;2.63;2.22;;;;;;;;;;10427258;28;20286;-48
2022/07/17 08:26:48;;;;;;;3.17;2.30;;;;;;;;;;10435302;28;20046;-48
2022/07/17 08:31:52;;;;;;;3.10;2.20;;;;;;;;;;10415974;28;20037;-49
2022/07/17 08:36:52;;;;;;;3.05;2.15;;;;;;;;;;10432409;28;20036;-49
2022/07/17 08:41:53;;;;;;;3.17;2.30;;;;;;;;;;10424308;28;20033;-48
2022/07/17 08:46:54;;;;;;;3.03;1.90;;;;;;;;;;10429115;28;20029;-51
2022/07/17 08:51:55;;;;;;;5.43;2.38;;;;;;;;;;10427444;28;20033;-47
2022/07/17 08:56:57;;;;;;;2.30;1.90;;;;;;;;;;10440973;28;20461;-48
2022/07/17 09:01:59;;;;;;;3.80;2.42;;;;;;;;;;10426133;28;20269;-49
2022/07/17 09:07:02;;;;;;;2.72;2.03;;;;;;;;;;10436339;28;20025;-48
2022/07/17 09:12:04;;;;;;;7.57;2.13;;;;;;;;;;10439158;28;20507;-51
2022/07/17 09:17:07;;;;;;;2.60;1.85;;;;;;;;;;10442658;28;20078;-47
2022/07/17 09:22:16;;;;;;;3.47;2.40;;;;;;;;;;10440685;28;20025;-49
2022/07/17 09:27:23;;;;;;;3.00;2.30;;;;;;;;;;10430554;28;20556;-47
2022/07/17 09:32:27;;;;;;;2.40;2.20;;;;;;;;;;10418845;28;20079;-47
2022/07/17 09:37:30;;;;;;;2.78;2.05;;;;;;;;;;10423548;28;20030;-48
2022/07/17 09:42:34;;;;;;;2.20;2.00;;;;;;;;;;10448507;28;20116;-48
2022/07/17 09:47:38;;;;;;;4.45;1.95;;;;;;;;;;10425570;28;20033;-49
2022/07/17 09:52:38;;;;;;;2.92;1.75;;;;;;;;;;10419362;28;20112;-47
2022/07/17 09:57:41;;;;;;;3.38;2.00;;;;;;;;;;10410530;28;20508;-48
2022/07/17 10:02:42;;;;;;;2.50;1.90;;;;;;;;;;10431078;28;20037;-48
2022/07/17 10:07:47;;;;;;;2.88;1.92;;;;;;;;;;10420545;28;20021;-48
2022/07/17 10:12:50;;;;;;;2.97;2.38;;;;;;;;;;10409331;28;20037;-49
2022/07/17 10:17:50;;;;;;;5.03;2.28;;;;;;;;;;10410317;28;20049;-49
2022/07/17 10:22:51;;;;;;;2.90;2.08;;;;;;;;;;10409350;28;20033;-48
2022/07/17 10:27:55;;;;;;;1.80;1.70;;;;;;;;;;10403613;28;20042;-48
2022/07/17 10:33:00;;;;;;;2.72;2.00;;;;;;;;;;10413697;28;20079;-49
2022/07/17 10:38:14;;;;;;;2.95;1.88;;;;;;;;;;10409805;28;20024;-48
2022/07/17 10:43:15;;;;;;;3.60;2.15;;;;;;;;;;10418034;28;20033;-51
2022/07/17 10:48:19;;;;;;;2.17;1.98;;;;;;;;;;10430352;28;20028;-49
2022/07/17 10:53:31;;;;;;;2.40;1.85;;;;;;;;;;10410022;28;20059;-50
2022/07/17 10:58:38;;;;;;;2.63;1.90;;;;;;;;;;10439587;28;20060;-48
2022/07/17 11:03:55;;;;;;;3.03;2.10;;;;;;;;;;10425329;28;20577;-49
2022/07/17 11:09:11;;;;;;;1.67;1.58;;;;;;;;;;10449785;28;20492;-49
2022/07/17 11:14:22;;;;;;;2.63;2.00;;;;;;;;;;10440294;28;20033;-50
2022/07/17 11:19:32;;;;;;;4.53;1.92;;;;;;;;;;10436278;28;20018;-48
2022/07/17 11:30:13;;;;;;;2.73;2.00;;;;;;;;;;10330000;28;20050;-48
2022/07/17 11:35:23;;;;;;;3.33;1.90;;;;;;;;;;10334788;28;20371;-48
2022/07/17 11:40:23;;;;;;;2.22;2.00;;;;;;;;;;10318489;28;20253;-53
2022/07/17 11:45:24;;;;;;;2.35;1.70;;;;;;;;;;10337427;28;20226;-49
2022/07/17 11:50:25;;;;;;;3.65;2.67;;;;;;;;;;10336926;28;20049;-51
2022/07/17 11:55:36;;;;;;;3.47;2.05;;;;;;;;;;10342672;28;20034;-48
2022/07/17 12:00:37;;;;;;;2.67;1.70;;;;;;;;;;10336321;28;20088;-48
2022/07/17 12:05:38;;;;;;;3.15;1.80;;;;;;;;;;10358878;28;20098;-47
2022/07/17 12:10:38;;;;;;;2.60;1.90;;;;;;;;;;10405794;28;20029;-48
2022/07/17 12:15:40;;;;;;;2.33;1.85;;;;;;;;;;10400822;28;20037;-48
2022/07/17 12:20:47;;;;;;;2.53;1.60;;;;;;;;;;10432443;28;20037;-48
2022/07/17 12:25:48;;;;;;;3.33;2.08;;;;;;;;;;10417161;28;20042;-50
2022/07/17 12:30:48;;;;;;;5.05;2.15;;;;;;;;;;10408617;28;20037;-50
2022/07/17 12:35:49;;;;;;;2.90;1.92;;;;;;;;;;10424583;28;20173;-49
2022/07/17 12:40:49;;;;;;;2.58;2.03;;;;;;;;;;10414536;28;20055;-48
2022/07/17 12:45:50;;;;;;;2.95;2.03;;;;;;;;;;10432661;28;20045;-48
2022/07/17 12:50:51;;;;;;;2.38;1.70;;;;;;;;;;10433455;28;20033;-48
2022/07/17 12:55:52;;;;;;;2.53;1.80;;;;;;;;;;10418658;28;20435;-48
2022/07/17 13:00:52;;;;;;;3.58;2.03;;;;;;;;;;10413466;28;20049;-50
2022/07/17 13:05:53;;;;;;;3.25;2.00;;;;;;;;;;10426370;28;20021;-48
2022/07/17 13:10:54;;;;;;;2.10;1.70;;;;;;;;;;10447435;28;20465;-50
2022/07/17 13:15:55;;;;;;;2.67;2.10;;;;;;;;;;10425226;28;20022;-51
2022/07/17 13:20:56;;;;;;;2.17;1.98;;;;;;;;;;10420413;28;20388;-49
2022/07/17 13:25:57;;;;;;;5.57;2.00;;;;;;;;;;10417206;28;20133;-48
2022/07/17 13:30:57;;;;;;;2.25;2.03;;;;;;;;;;10411704;28;20469;-47
2022/07/17 13:35:58;;;;;;;3.88;2.08;;;;;;;;;;10420862;28;20021;-48
2022/07/17 13:40:59;;;;;;;2.63;1.80;;;;;;;;;;10447105;28;20396;-48
2022/07/17 13:45:59;;;;;;;1.83;1.67;;;;;;;;;;10429503;28;20108;-47
2022/07/17 13:51:00;;;;;;;2.00;1.77;;;;;;;;;;10427917;28;20032;-48
2022/07/17 13:56:00;;;;;;;6.03;2.25;;;;;;;;;;10420292;28;20110;-49
2022/07/17 14:01:01;;;;;;;3.25;2.13;;;;;;;;;;10415852;28;20366;-49
2022/07/17 14:06:02;;;;;;;2.10;1.90;;;;;;;;;;10399577;28;20112;-49
2022/07/17 14:11:03;;;;;;;2.72;1.73;;;;;;;;;;10413637;28;20083;-49
2022/07/17 14:16:04;;;;;;;2.95;1.80;;;;;;;;;;10411302;28;20524;-51
2022/07/17 14:21:05;;;;;;;2.30;2.10;;;;;;;;;;10413415;28;20026;-48
2022/07/17 14:26:06;;;;;;;2.65;2.00;;;;;;;;;;10415156;28;20096;-48
2022/07/17 14:31:06;;;;;;;2.05;1.80;;;;;;;;;;10408117;28;20029;-48
2022/07/17 14:36:07;;;;;;;2.33;2.10;;;;;;;;;;10418698;28;20049;-50
2022/07/17 14:41:08;;;;;;;3.80;2.08;;;;;;;;;;10410312;28;20354;-48
2022/07/17 14:46:09;;;;;;;3.90;1.92;;;;;;;;;;10413012;28;20044;-48
2022/07/17 14:51:10;;;;;;;1.85;1.75;;;;;;;;;;10429779;28;20380;-48
2022/07/17 14:56:10;;;;;;;2.67;2.03;;;;;;;;;;10418178;28;20033;-47
2022/07/17 15:01:11;;;;;;;2.20;1.98;;;;;;;;;;10421205;28;20056;-49
2022/07/17 15:06:12;;;;;;;2.13;1.90;;;;;;;;;;10412482;28;20041;-48
2022/07/17 15:11:12;;;;;;;2.08;1.88;;;;;;;;;;10408775;28;20469;-49
2022/07/17 15:16:13;;;;;;;2.75;2.00;;;;;;;;;;10422449;28;20036;-48
2022/07/17 15:21:14;;;;;;;2.70;1.88;;;;;;;;;;10432631;28;20361;-49
2022/07/17 15:26:14;;;;;;;2.17;1.98;;;;;;;;;;10439021;28;20041;-48
2022/07/17 15:31:15;;;;;;;2.00;1.77;;;;;;;;;;10425314;28;20017;-48
2022/07/17 15:36:25;;;;;;;2.28;1.83;;;;;;;;;;10408964;28;20025;-48
2022/07/17 15:41:26;;;;;;;2.30;2.08;;;;;;;;;;10430168;28;20057;-48
2022/07/17 15:46:27;;;;;;;6.57;2.03;;;;;;;;;;10408706;28;20028;-48
2022/07/17 15:51:29;;;;;;;2.55;2.03;;;;;;;;;;10423089;28;20382;-48
2022/07/17 15:56:30;;;;;;;2.40;1.90;;;;;;;;;;10408956;28;20104;-52
2022/07/17 16:01:31;;;;;;;2.20;1.88;;;;;;;;;;10418577;28;20032;-49
2022/07/17 16:06:32;;;;;;;5.75;2.22;;;;;;;;;;10412234;28;20036;-51
2022/07/17 16:11:33;;;;;;;2.20;2.00;;;;;;;;;;10399867;28;20036;-49
2022/07/17 16:16:35;;;;;;;3.88;2.50;;;;;;;;;;10416521;28;20052;-50
2022/07/17 16:21:35;;;;;;;4.50;2.38;;;;;;;;;;10410948;28;20038;-53
2022/07/17 16:26:36;;;;;;;8.20;3.03;;;;;;;;;;10404434;28;20033;-51
2022/07/17 16:31:38;;;;;;;14.57;3.53;;;;;;;;;;10416663;28;20033;-56
2022/07/17 16:36:38;;;;;;;10.52;3.60;;;;;;;;;;10408986;28;20035;-55
2022/07/17 16:41:39;;;;;;;4.60;3.00;;;;;;;;;;10413876;28;20030;-52
2022/07/17 16:46:40;;;;;;;8.68;3.95;;;;;;;;;;10410360;28;20485;-52
2022/07/17 16:51:41;;;;;;;7.75;2.63;;;;;;;;;;10413027;28;20389;-55
2022/07/17 16:56:42;;;;;;;6.00;2.97;;;;;;;;;;10405851;28;20031;-54
2022/07/17 17:01:43;;;;;;;7.93;2.83;;;;;;;;;;10407024;28;20053;-56
2022/07/17 17:06:44;;;;;;;5.13;2.65;;;;;;;;;;10415636;28;20021;-53
2022/07/17 17:11:44;;;;;;;5.07;2.72;;;;;;;;;;10403693;28;20159;-52
2022/07/17 17:16:45;;;;;;;5.25;2.67;;;;;;;;;;10413386;28;20018;-53
2022/07/17 17:21:46;;;;;;;5.93;2.88;;;;;;;;;;10417391;28;20181;-57
2022/07/17 17:26:46;;;;;;;12.27;2.90;;;;;;;;;;10400206;28;20413;-55
2022/07/17 17:31:47;;;;;;;4.90;2.50;;;;;;;;;;10411033;28;20420;-53
2022/07/17 17:36:47;;;;;;;4.38;2.60;;;;;;;;;;10401017;28;20025;-56
2022/07/17 17:41:48;;;;;;;8.45;2.75;;;;;;;;;;10403315;28;20452;-56
2022/07/17 17:46:52;;;;;;;5.25;2.72;;;;;;;;;;10420250;28;20036;-57
2022/07/17 17:51:54;;;;;;;4.25;2.45;;;;;;;;;;10416044;28;20049;-58
2022/07/17 17:56:54;;;;;;;3.80;2.65;;;;;;;;;;10395317;28;20037;-55
2022/07/17 18:01:56;;;;;;;3.33;2.50;;;;;;;;;;10409916;28;20022;-57
2022/07/17 18:06:56;;;;;;;6.57;3.35;;;;;;;;;;10399903;28;20447;-52
2022/07/17 18:11:57;;;;;;;5.03;2.60;;;;;;;;;;10393329;28;20044;-56
2022/07/17 18:16:58;;;;;;;4.65;2.72;;;;;;;;;;10412784;28;20060;-55
2022/07/17 18:21:59;;;;;;;5.05;2.70;;;;;;;;;;10413198;28;20111;-57
2022/07/17 18:26:59;;;;;;;12.85;2.85;;;;;;;;;;10417686;28;20048;-56
2022/07/17 18:32:00;;;;;;;7.50;2.78;;;;;;;;;;10420692;28;20032;-55
2022/07/17 18:37:00;;;;;;;5.75;2.72;;;;;;;;;;10418566;28;20588;-54
2022/07/17 18:42:01;;;;;;;4.30;2.90;;;;;;;;;;10419900;28;20033;-55
2022/07/17 18:47:02;;;;;;;4.00;3.10;;;;;;;;;;10406085;28;20124;-53
2022/07/17 18:52:03;;;;;;;6.50;2.83;;;;;;;;;;10408966;28;20102;-52
2022/07/17 18:57:03;;;;;;;3.90;2.50;;;;;;;;;;10408305;28;20529;-56
2022/07/17 19:02:04;;;;;;;3.95;2.80;;;;;;;;;;10412761;28;20535;-54
2022/07/17 19:07:04;;;;;;;5.15;2.90;;;;;;;;;;10437914;28;20492;-56
2022/07/17 19:12:06;;;;;;;4.10;2.88;;;;;;;;;;10413457;28;20030;-52
2022/07/17 19:17:07;;;;;;;3.17;2.78;;;;;;;;;;10413435;28;20127;-54
2022/07/17 19:22:08;;;;;;;3.05;2.47;;;;;;;;;;10414059;28;20101;-54
2022/07/17 19:27:08;;;;;;;4.20;2.72;;;;;;;;;;10414618;28;20045;-56
2022/07/17 19:32:09;;;;;;;5.32;3.00;;;;;;;;;;10408591;28;20059;-57
2022/07/17 19:37:10;;;;;;;4.30;3.00;;;;;;;;;;10407913;28;20025;-59
2022/07/17 19:42:10;;;;;;;3.55;2.75;;;;;;;;;;10403170;28;20256;-59
2022/07/17 19:47:19;;;;;;;2.83;2.47;;;;;;;;;;10407992;28;20099;-55
2022/07/17 19:52:20;;;;;;;7.43;3.10;;;;;;;;;;10419493;28;20057;-58
2022/07/17 19:57:21;;;;;;;6.80;2.70;;;;;;;;;;10428807;28;21539;-60
2022/07/17 20:02:22;;;;;;;5.57;2.60;;;;;;;;;;10409176;28;20400;-57
2022/07/17 20:07:24;;;;;;;4.53;2.50;;;;;;;;;;10407117;28;20029;-57
2022/07/17 20:12:25;;;;;;;4.07;3.03;;;;;;;;;;10412118;28;20025;-55
2022/07/17 20:17:26;;;;;;;6.43;2.38;;;;;;;;;;10397631;28;20021;-60
2022/07/17 20:22:26;;;;;;;2.45;2.22;;;;;;;;;;10395699;28;20034;-60
2022/07/17 20:27:27;;;;;;;4.20;2.60;;;;;;;;;;10397290;28;20504;-58
2022/07/17 20:32:27;;;;;;;3.95;2.67;;;;;;;;;;10398047;28;20506;-56
2022/07/17 20:37:28;;;;;;;11.48;2.83;;;;;;;;;;10398947;28;20034;-60
2022/07/17 20:42:29;;;;;;;4.18;2.55;;;;;;;;;;10392734;28;20124;-57
2022/07/17 20:47:29;;;;;;;5.30;2.60;;;;;;;;;;10406406;28;20112;-55
2022/07/17 20:52:30;;;;;;;3.72;2.40;;;;;;;;;;10408888;28;20041;-60
2022/07/17 20:57:30;;;;;;;3.47;2.00;;;;;;;;;;10407086;28;20509;-57
2022/07/17 21:02:31;;;;;;;4.50;2.35;;;;;;;;;;10409482;28;20025;-60
2022/07/17 21:07:32;;;;;;;4.60;2.30;;;;;;;;;;10412620;28;20495;-60
2022/07/17 21:12:32;;;;;;;2.97;2.08;;;;;;;;;;10410804;28;20037;-58
2022/07/17 21:17:33;;;;;;;7.28;2.00;;;;;;;;;;10405538;28;20037;-55
2022/07/17 21:22:36;;;;;;;7.20;2.40;;;;;;;;;;10420378;28;20038;-60
2022/07/17 21:27:42;;;;;;;6.47;2.30;;;;;;;;;;10411459;28;20040;-60
2022/07/17 21:32:43;;;;;;;12.20;2.30;;;;;;;;;;10402902;28;20037;-49
2022/07/17 21:37:44;;;;;;;7.47;2.70;;;;;;;;;;10398416;28;20075;-56
2022/07/17 21:42:45;;;;;;;8.20;2.50;;;;;;;;;;10395033;28;20025;-53
2022/07/17 21:47:45;;;;;;;11.52;3.05;;;;;;;;;;10406495;28;20032;-51
2022/07/17 21:52:48;;;;;;;15.68;2.70;;;;;;;;;;10410416;28;20041;-55
2022/07/17 21:57:49;;;;;;;10.05;2.50;;;;;;;;;;10411192;28;20030;-53
2022/07/17 22:02:50;;;;;;;10.60;2.83;;;;;;;;;;10405454;28;20045;-52
2022/07/17 22:07:51;;;;;;;12.95;2.97;;;;;;;;;;10409436;28;20029;-53
2022/07/17 22:12:52;;;;;;;24.73;3.35;;;;;;;;;;10402424;28;20497;-56
2022/07/17 22:17:53;;;;;;;11.93;3.10;;;;;;;;;;10399557;28;20029;-54
2022/07/17 22:22:54;;;;;;;12.45;2.88;;;;;;;;;;10389398;28;20124;-51
2022/07/17 22:27:55;;;;;;;8.32;3.25;;;;;;;;;;10381776;28;20555;-51
2022/07/17 22:32:56;;;;;;;8.00;2.80;;;;;;;;;;10389444;28;20040;-49
2022/07/17 22:37:56;;;;;;;9.50;2.90;;;;;;;;;;10407504;28;20477;-53
2022/07/17 22:42:57;;;;;;;12.57;2.85;;;;;;;;;;10396196;28;20033;-57
2022/07/17 22:47:57;;;;;;;10.07;3.17;;;;;;;;;;10393434;28;20032;-55
2022/07/17 22:52:58;;;;;;;7.57;2.50;;;;;;;;;;10402292;28;20025;-58
2022/07/17 22:57:59;;;;;;;11.00;2.85;;;;;;;;;;10413759;28;20035;-55
2022/07/17 23:03:00;;;;;;;6.97;2.50;;;;;;;;;;10413408;28;20048;-55
2022/07/17 23:08:01;;;;;;;6.30;2.60;;;;;;;;;;10405588;28;20025;-52
2022/07/17 23:13:02;;;;;;;3.72;2.40;;;;;;;;;;10405752;28;20473;-54
2022/07/17 23:18:02;;;;;;;10.65;3.00;;;;;;;;;;10396854;28;20374;-52
2022/07/17 23:23:03;;;;;;;3.78;2.53;;;;;;;;;;10410134;28;20029;-51
2022/07/17 23:28:04;;;;;;;4.25;2.42;;;;;;;;;;10398944;28;20046;-50
2022/07/17 23:33:06;;;;;;;9.90;2.42;;;;;;;;;;10398881;28;20040;-50
2022/07/17 23:38:06;;;;;;;8.25;2.33;;;;;;;;;;10393418;28;20040;-50
2022/07/17 23:43:07;;;;;;;4.93;2.60;;;;;;;;;;10408783;28;20030;-52
2022/07/17 23:48:07;;;;;;;6.00;2.75;;;;;;;;;;10380790;28;20488;-57
2022/07/17 23:53:08;;;;;;;5.13;2.25;;;;;;;;;;10416236;28;20478;-54
2022/07/17 23:58:08;;;;;;;10.65;2.83;;;;;;;;;;10417318;28;20369;-57
